Time;durP1;ratioP1;P1;durP2;ratioP2;P2;SDS_P1;SDS_P2;PMS_P1;PMS_P2;Temp;Humidity;BMP_temperature;BMP_pressure;BME280_temperature;BME280_humidity;BME280_pressure;Samples;Min_cycle;Max_cycle;Signal;HPM_P1;HPM_P2
2021/06/12 00:01:39;;;;;;;13.63;11.50;;;;;;;21.09;68.00;100525.53;5041163;28;20492;-70
2021/06/12 00:04:05;;;;;;;14.53;11.90;;;;;;;20.98;67.89;100524.25;5042593;28;20446;-70
2021/06/12 00:06:31;;;;;;;12.23;10.90;;;;;;;20.97;68.24;100522.59;5041992;28;20474;-70
2021/06/12 00:08:57;;;;;;;12.33;11.00;;;;;;;20.96;67.95;100526.34;5042000;28;20477;-70
2021/06/12 00:11:24;;;;;;;14.07;10.80;;;;;;;20.88;68.36;100524.66;5041690;28;20795;-70
2021/06/12 00:13:50;;;;;;;13.07;11.23;;;;;;;20.80;68.87;100532.13;5042492;28;20521;-70
2021/06/12 00:16:18;;;;;;;17.77;10.40;;;;;;;20.85;68.56;100540.50;5041299;28;20506;-70
2021/06/12 00:18:45;;;;;;;11.80;10.70;;;;;;;21.00;68.62;100532.22;5042215;28;20480;-70
2021/06/12 00:21:12;;;;;;;13.30;12.00;;;;;;;21.05;68.27;100527.00;5041761;28;20502;-70
2021/06/12 00:23:38;;;;;;;15.13;12.70;;;;;;;21.10;67.88;100523.69;5041848;28;20916;-70
2021/06/12 00:26:04;;;;;;;12.83;10.97;;;;;;;21.11;67.54;100528.06;5042082;28;20553;-70
2021/06/12 00:28:30;;;;;;;13.57;12.07;;;;;;;21.06;68.21;100526.81;5042311;28;20633;-70
2021/06/12 00:30:56;;;;;;;11.87;10.70;;;;;;;20.98;68.18;100526.13;5040831;28;20474;-70
2021/06/12 00:33:23;;;;;;;14.63;11.83;;;;;;;21.16;68.03;100531.00;5041905;28;20500;-70
2021/06/12 00:35:50;;;;;;;12.80;11.30;;;;;;;21.30;67.27;100524.59;5041507;28;20474;-70
2021/06/12 00:38:16;;;;;;;12.33;11.13;;;;;;;21.24;67.41;100519.97;5041693;28;20554;-71
2021/06/12 00:40:42;;;;;;;13.80;11.93;;;;;;;21.24;67.43;100518.06;5040896;28;20557;-70
2021/06/12 00:43:08;;;;;;;13.67;12.27;;;;;;;21.37;67.01;100524.59;5042390;28;20480;-70
2021/06/12 00:45:35;;;;;;;13.70;12.30;;;;;;;21.28;67.32;100512.22;5040406;28;20540;-70
2021/06/12 00:48:01;;;;;;;13.13;11.60;;;;;;;21.34;66.95;100511.44;5040861;28;20482;-70
2021/06/12 00:50:29;;;;;;;14.67;12.00;;;;;;;21.43;66.78;100511.00;5031384;28;20478;-70
2021/06/12 00:52:57;;;;;;;13.03;11.60;;;;;;;21.37;66.98;100514.56;5021618;28;20502;-70
2021/06/12 00:55:23;;;;;;;16.23;12.70;;;;;;;21.08;67.60;100512.19;5035391;28;20442;-70
2021/06/12 00:57:49;;;;;;;13.93;12.50;;;;;;;20.97;68.14;100509.00;5041132;28;20470;-71
2021/06/12 01:00:17;;;;;;;18.13;14.20;;;;;;;20.97;67.74;100503.56;5040232;28;20989;-70
2021/06/12 01:02:44;;;;;;;18.67;14.60;;;;;;;20.91;67.61;100508.97;5039990;28;20450;-70
2021/06/12 01:05:11;;;;;;;16.70;14.53;;;;;;;20.96;67.80;100501.03;5039842;28;20493;-70
2021/06/12 01:07:38;;;;;;;16.43;13.13;;;;;;;20.76;67.99;100509.97;5041313;28;20514;-70
2021/06/12 01:10:07;;;;;;;15.33;12.63;;;;;;;20.73;68.48;100501.34;5041636;28;20560;-68
2021/06/12 01:12:39;;;;;;;18.30;14.53;;;;;;;20.76;68.38;100498.22;5041923;28;20450;-70
2021/06/12 01:15:09;;;;;;;17.03;13.00;;;;;;;20.76;68.60;100514.53;5042236;28;20473;-69
2021/06/12 01:17:40;;;;;;;14.70;12.27;;;;;;;20.69;68.21;100503.63;5042117;28;20462;-70
2021/06/12 01:20:39;;;;;;;15.70;13.10;;;;;;;20.75;67.76;100502.84;5041648;28;20537;-69
2021/06/12 01:23:50;;;;;;;18.10;12.47;;;;;;;20.74;68.16;100508.47;5042528;28;20460;-70
2021/06/12 01:26:31;;;;;;;16.63;14.83;;;;;;;20.49;68.62;100504.31;5041656;28;20553;-69
2021/06/12 01:29:05;;;;;;;17.30;14.10;;;;;;;20.47;68.95;100497.44;5042547;28;20466;-70
2021/06/12 01:31:33;;;;;;;18.20;13.00;;;;;;;20.43;68.99;100504.28;5041148;28;20502;-69
2021/06/12 01:34:02;;;;;;;16.63;14.50;;;;;;;20.37;69.30;100496.94;5042066;28;20513;-69
2021/06/12 01:36:28;;;;;;;17.00;14.13;;;;;;;20.24;69.31;100503.97;5041763;28;20504;-69
2021/06/12 01:38:56;;;;;;;17.43;15.10;;;;;;;20.17;69.97;100513.91;5041910;28;20821;-69
2021/06/12 01:41:22;;;;;;;17.87;14.43;;;;;;;20.15;69.83;100513.28;5041321;28;20572;-69
2021/06/12 01:43:50;;;;;;;16.70;14.67;;;;;;;20.23;70.14;100502.28;5042551;28;20544;-70
2021/06/12 01:46:17;;;;;;;17.97;15.00;;;;;;;20.37;69.24;100505.09;5041876;28;20795;-70
2021/06/12 01:48:46;;;;;;;17.83;16.00;;;;;;;20.39;69.26;100497.56;5040944;28;20557;-70
2021/06/12 01:51:13;;;;;;;17.13;15.33;;;;;;;20.44;69.24;100500.53;5041397;28;20536;-69
2021/06/12 01:53:41;;;;;;;16.87;15.00;;;;;;;20.57;68.51;100510.63;5041609;28;20486;-70
2021/06/12 01:56:09;;;;;;;16.77;14.00;;;;;;;20.41;69.04;100512.63;5041910;28;20474;-70
2021/06/12 01:58:39;;;;;;;21.10;16.27;;;;;;;20.43;69.35;100509.72;5044026;28;20442;-69
2021/06/12 02:01:06;;;;;;;19.43;15.30;;;;;;;20.40;69.38;100494.66;5045779;28;20461;-69
2021/06/12 02:03:32;;;;;;;22.37;17.20;;;;;;;20.31;69.42;100499.41;5045472;28;20486;-70
2021/06/12 02:06:01;;;;;;;21.10;16.77;;;;;;;20.54;68.85;100495.59;5045749;28;20597;-70
2021/06/12 02:08:28;;;;;;;21.33;18.40;;;;;;;20.33;69.52;100501.94;5045806;28;20497;-70
2021/06/12 02:10:54;;;;;;;24.80;20.20;;;;;;;20.35;69.58;100502.56;5045453;28;20466;-70
2021/06/12 02:13:22;;;;;;;21.50;18.10;;;;;;;20.37;69.58;100503.19;5044875;28;20533;-70
2021/06/12 02:15:52;;;;;;;32.37;21.50;;;;;;;20.42;69.08;100516.19;5045206;28;20473;-70
2021/06/12 02:18:19;;;;;;;22.70;19.23;;;;;;;20.36;69.56;100503.41;5044918;28;20477;-70
2021/06/12 02:20:46;;;;;;;26.90;21.00;;;;;;;20.34;69.39;100500.88;5045462;28;20486;-71
2021/06/12 02:23:14;;;;;;;24.10;19.83;;;;;;;20.40;69.00;100496.56;5045184;28;20509;-70
2021/06/12 02:25:40;;;;;;;25.37;21.10;;;;;;;20.08;70.39;100498.81;5045188;28;20489;-70
2021/06/12 02:28:07;;;;;;;24.03;21.00;;;;;;;19.90;70.63;100494.72;5045294;28;20514;-70
2021/06/12 02:30:37;;;;;;;27.17;21.30;;;;;;;20.23;69.95;100504.16;5045259;28;20494;-70
2021/06/12 02:33:05;;;;;;;24.83;21.00;;;;;;;20.27;69.64;100500.81;5044590;28;20464;-70
2021/06/12 02:35:33;;;;;;;31.30;21.57;;;;;;;19.82;70.79;100496.72;5045173;28;20493;-70
2021/06/12 02:37:59;;;;;;;27.50;21.33;;;;;;;19.87;70.28;100495.09;5044456;28;20454;-70
2021/06/12 02:40:27;;;;;;;30.33;22.40;;;;;;;19.96;70.55;100495.78;5045019;28;20469;-70
2021/06/12 02:42:53;;;;;;;31.13;23.37;;;;;;;19.87;70.50;100494.25;5044622;28;20504;-70
2021/06/12 02:45:20;;;;;;;33.33;23.97;;;;;;;19.87;70.99;100494.25;5045221;28;20995;-70
2021/06/12 02:47:51;;;;;;;33.13;23.30;;;;;;;19.98;70.28;100509.16;5043548;28;20928;-69
2021/06/12 02:50:20;;;;;;;31.73;24.63;;;;;;;19.90;70.59;100504.72;5044601;28;21015;-70
2021/06/12 02:52:47;;;;;;;33.83;24.37;;;;;;;19.83;70.58;100503.84;5044521;28;20446;-68
2021/06/12 02:55:14;;;;;;;34.40;23.60;;;;;;;19.73;71.00;100507.66;5044581;28;20442;-68
2021/06/12 02:57:45;;;;;;;30.37;23.97;;;;;;;19.82;70.90;100502.16;5044517;28;20533;-68
2021/06/12 03:00:14;;;;;;;33.23;23.83;;;;;;;19.78;70.71;100490.84;5044675;28;20466;-70
2021/06/12 03:02:42;;;;;;;33.07;23.80;;;;;;;19.62;71.21;100489.22;5044199;28;20482;-70
2021/06/12 03:05:11;;;;;;;40.53;23.30;;;;;;;19.66;71.14;100476.94;5044751;28;20438;-70
2021/06/12 03:07:37;;;;;;;35.90;24.37;;;;;;;19.32;72.12;100480.34;5044613;28;20502;-70
2021/06/12 03:10:04;;;;;;;34.07;23.43;;;;;;;19.47;71.87;100469.47;5043870;28;20588;-70
2021/06/12 03:12:31;;;;;;;34.57;25.50;;;;;;;19.50;71.23;100461.78;5043197;28;20541;-70
2021/06/12 03:14:59;;;;;;;37.20;24.33;;;;;;;19.44;71.61;100470.66;5045111;28;20430;-70
2021/06/12 03:17:26;;;;;;;33.90;23.20;;;;;;;19.50;71.44;100467.19;5043489;28;20545;-70
2021/06/12 03:19:53;;;;;;;32.23;22.70;;;;;;;19.71;71.05;100481.78;5044315;28;20493;-70
2021/06/12 03:22:20;;;;;;;31.20;22.23;;;;;;;19.77;70.69;100481.03;5043144;28;20478;-68
2021/06/12 03:24:47;;;;;;;32.43;23.40;;;;;;;19.86;70.32;100495.28;5044876;28;20902;-68
2021/06/12 03:27:13;;;;;;;31.63;21.70;;;;;;;19.84;70.11;100479.22;5044011;28;20554;-68
2021/06/12 03:29:40;;;;;;;31.67;22.53;;;;;;;19.43;71.17;100479.84;5044367;28;20466;-68
2021/06/12 03:32:08;;;;;;;31.30;22.50;;;;;;;19.57;70.96;100481.66;5043032;28;20473;-68
2021/06/12 03:34:35;;;;;;;30.73;20.80;;;;;;;19.65;70.19;100478.00;5043838;28;20467;-69
2021/06/12 03:37:01;;;;;;;29.40;20.70;;;;;;;19.69;70.43;100473.84;5043780;28;20485;-70
2021/06/12 03:39:28;;;;;;;37.60;22.30;;;;;;;19.42;70.54;100470.03;5044095;28;20459;-70
2021/06/12 03:41:54;;;;;;;30.73;20.43;;;;;;;19.80;70.04;100472.50;5043541;28;20474;-70
2021/06/12 03:44:21;;;;;;;27.60;20.27;;;;;;;19.70;69.99;100463.81;5044402;28;20461;-70
2021/06/12 03:46:48;;;;;;;30.77;20.83;;;;;;;19.75;69.42;100466.81;5043496;28;20512;-70
2021/06/12 03:49:18;;;;;;;29.10;19.13;;;;;;;19.67;70.06;100461.50;5043177;28;20520;-70
2021/06/12 03:51:45;;;;;;;27.50;18.70;;;;;;;19.74;69.81;100462.44;5043163;28;20498;-71
2021/06/12 03:54:12;;;;;;;29.37;18.60;;;;;;;19.88;68.99;100471.53;5043662;28;20483;-70
2021/06/12 03:56:39;;;;;;;32.50;20.63;;;;;;;19.79;69.10;100480.81;5043235;28;20509;-70
2021/06/12 03:59:07;;;;;;;24.13;18.17;;;;;;;19.78;69.16;100490.03;5043411;28;20834;-71
2021/06/12 04:01:34;;;;;;;23.43;17.87;;;;;;;19.88;69.03;100487.81;5043150;28;20545;-71
2021/06/12 04:04:00;;;;;;;23.70;18.40;;;;;;;19.80;69.07;100498.78;5043360;28;20453;-68
2021/06/12 04:06:28;;;;;;;24.87;19.37;;;;;;;19.64;69.04;100495.28;5043449;28;20481;-71
2021/06/12 04:08:54;;;;;;;22.17;17.43;;;;;;;19.50;69.53;100499.72;5043386;28;20497;-71
2021/06/12 04:11:21;;;;;;;22.33;16.70;;;;;;;19.59;69.08;100502.31;5042889;28;20506;-71
2021/06/12 04:13:47;;;;;;;24.07;17.33;;;;;;;19.56;69.49;100500.81;5043379;28;20482;-71
2021/06/12 04:16:13;;;;;;;20.50;17.83;;;;;;;19.43;69.75;100496.13;5043313;28;20485;-70
2021/06/12 04:18:39;;;;;;;25.30;18.00;;;;;;;19.19;70.17;100489.19;5043069;28;20522;-71
2021/06/12 04:21:06;;;;;;;21.57;17.30;;;;;;;19.59;69.52;100488.78;5042230;28;20474;-71
2021/06/12 04:23:33;;;;;;;20.20;17.20;;;;;;;19.69;68.38;100484.69;5043082;28;20478;-69
2021/06/12 04:25:59;;;;;;;23.00;15.70;;;;;;;19.85;67.82;100491.75;5043018;28;20538;-68
2021/06/12 04:28:25;;;;;;;19.33;15.43;;;;;;;20.12;66.83;100497.41;5043390;28;20951;-68
2021/06/12 04:30:52;;;;;;;23.50;17.23;;;;;;;20.12;66.87;100491.97;5042653;28;20589;-68
2021/06/12 04:33:18;;;;;;;20.67;16.00;;;;;;;20.27;66.26;100489.13;5042378;28;20468;-68
2021/06/12 04:35:44;;;;;;;18.20;14.53;;;;;;;20.05;66.95;100493.78;5043067;28;20497;-68
2021/06/12 04:38:10;;;;;;;20.30;15.47;;;;;;;19.95;67.06;100483.28;5042969;28;20449;-68
2021/06/12 04:40:38;;;;;;;19.23;15.40;;;;;;;20.30;66.61;100486.03;5042684;28;20489;-70
2021/06/12 04:43:04;;;;;;;17.70;15.13;;;;;;;20.51;66.00;100488.66;5041819;28;20458;-69
2021/06/12 04:45:30;;;;;;;18.37;14.80;;;;;;;20.52;65.88;100484.09;5042882;28;20509;-69
2021/06/12 04:47:57;;;;;;;16.90;14.53;;;;;;;20.42;66.01;100499.91;5041610;28;20476;-69
2021/06/12 04:50:23;;;;;;;20.00;14.67;;;;;;;20.62;64.86;100498.19;5041726;28;20494;-69
2021/06/12 04:52:49;;;;;;;20.33;15.20;;;;;;;21.23;63.06;100494.66;5042438;28;20482;-69
2021/06/12 04:55:16;;;;;;;20.00;16.13;;;;;;;20.82;64.43;100503.69;5042273;28;20942;-69
2021/06/12 04:57:43;;;;;;;17.97;14.40;;;;;;;21.09;63.88;100502.97;5042497;28;20916;-69
2021/06/12 05:00:11;;;;;;;20.83;14.57;;;;;;;21.50;62.33;100505.63;5042324;28;20428;-70
2021/06/12 05:02:39;;;;;;;19.40;14.40;;;;;;;21.89;60.53;100493.13;5037517;28;20464;-69
2021/06/12 05:05:06;;;;;;;19.30;14.33;;;;;;;22.26;59.42;100484.50;5042229;28;20875;-66
2021/06/12 05:07:32;;;;;;;19.07;14.40;;;;;;;22.41;59.63;100473.38;5041488;28;20565;-69
2021/06/12 05:09:58;;;;;;;23.03;14.07;;;;;;;23.07;57.64;100466.88;5042465;28;20497;-70
2021/06/12 05:12:24;;;;;;;18.10;14.97;;;;;;;23.88;54.79;100478.97;5041911;28;20806;-69
2021/06/12 05:14:55;;;;;;;18.67;14.00;;;;;;;24.23;53.94;100489.38;5042128;28;20438;-69
2021/06/12 05:17:21;;;;;;;15.10;13.50;;;;;;;23.71;54.60;100496.91;5041875;28;20498;-69
2021/06/12 05:19:47;;;;;;;17.27;14.73;;;;;;;24.50;53.21;100480.91;5041451;28;20460;-69
2021/06/12 05:22:13;;;;;;;19.40;16.00;;;;;;;23.80;53.66;100490.13;5042077;28;20501;-69
2021/06/12 05:24:40;;;;;;;23.10;16.07;;;;;;;23.42;55.76;100488.31;5042371;28;20445;-69
2021/06/12 05:27:07;;;;;;;20.80;16.00;;;;;;;22.70;57.83;100488.41;5041475;28;20528;-69
2021/06/12 05:29:34;;;;;;;20.83;16.43;;;;;;;22.46;58.45;100488.03;5030344;28;20474;-71
2021/06/12 05:32:01;;;;;;;17.80;15.03;;;;;;;21.87;61.16;100497.91;5041272;28;20495;-68
2021/06/12 05:34:27;;;;;;;18.53;15.13;;;;;;;21.72;61.52;100500.03;5045637;28;20498;-68
2021/06/12 05:36:53;;;;;;;22.67;15.40;;;;;;;21.81;61.24;100488.72;5045719;28;20536;-67
2021/06/12 05:39:19;;;;;;;21.00;16.83;;;;;;;21.64;61.88;100490.16;5046116;28;20465;-67
2021/06/12 05:41:46;;;;;;;20.30;15.87;;;;;;;21.59;62.05;100489.94;5045334;28;20858;-68
2021/06/12 05:44:12;;;;;;;21.23;15.60;;;;;;;21.65;61.76;100483.69;5045218;28;20522;-69
2021/06/12 05:46:38;;;;;;;19.57;14.97;;;;;;;20.98;64.45;100488.09;5045765;28;20470;-68
2021/06/12 05:49:05;;;;;;;17.23;14.17;;;;;;;21.16;63.42;100485.66;5044457;28;20525;-68
2021/06/12 05:51:31;;;;;;;21.70;15.83;;;;;;;21.33;62.69;100487.97;5045625;28;20533;-69
2021/06/12 05:53:57;;;;;;;18.80;15.00;;;;;;;21.51;62.40;100493.72;5044514;28;20454;-68
2021/06/12 05:56:25;;;;;;;19.67;15.80;;;;;;;21.23;62.99;100488.38;5044088;28;20565;-69
2021/06/12 05:58:51;;;;;;;19.43;15.83;;;;;;;21.09;63.12;100479.31;5045049;28;20438;-69
2021/06/12 06:01:17;;;;;;;19.67;15.60;;;;;;;20.59;65.06;100484.97;5045662;28;20489;-71
2021/06/12 06:03:43;;;;;;;24.63;15.70;;;;;;;20.55;65.44;100486.38;5045839;28;20485;-69
2021/06/12 06:06:11;;;;;;;17.30;15.43;;;;;;;20.36;66.22;100489.81;5044547;28;20509;-70
2021/06/12 06:08:37;;;;;;;22.30;15.47;;;;;;;20.62;65.70;100494.59;5045439;28;20871;-71
2021/06/12 06:11:04;;;;;;;20.30;16.90;;;;;;;20.41;65.84;100490.06;5044791;28;20497;-71
2021/06/12 06:13:35;;;;;;;26.10;16.47;;;;;;;20.31;66.56;100485.84;5033562;28;20470;-70
2021/06/12 06:16:02;;;;;;;20.17;15.40;;;;;;;20.22;66.91;100489.72;5042594;28;20512;-70
2021/06/12 06:18:28;;;;;;;21.43;15.80;;;;;;;20.21;67.36;100476.38;5042444;28;20489;-70
2021/06/12 06:20:54;;;;;;;19.53;15.57;;;;;;;19.94;67.95;100474.28;5042887;28;20786;-70
2021/06/12 06:23:21;;;;;;;19.77;15.70;;;;;;;19.79;68.29;100478.97;5042865;28;20454;-70
2021/06/12 06:25:48;;;;;;;22.40;16.53;;;;;;;20.10;67.52;100475.88;5043142;28;20504;-69
2021/06/12 06:28:14;;;;;;;21.87;15.83;;;;;;;20.16;67.23;100476.97;5043302;28;20472;-69
2021/06/12 06:30:40;;;;;;;22.10;15.20;;;;;;;20.32;66.53;100470.38;5043005;28;20481;-70
2021/06/12 06:33:07;;;;;;;19.83;15.90;;;;;;;20.17;67.03;100485.94;5042965;28;20446;-70
2021/06/12 06:35:33;;;;;;;19.17;14.47;;;;;;;20.10;67.33;100484.03;5042357;28;20478;-71
2021/06/12 06:37:59;;;;;;;23.23;15.20;;;;;;;20.33;66.69;100488.34;5042885;28;20438;-70
2021/06/12 06:40:27;;;;;;;21.40;15.73;;;;;;;20.29;66.72;100474.34;5042406;28;20466;-70
2021/06/12 06:42:53;;;;;;;20.17;15.13;;;;;;;20.54;66.49;100478.47;5042277;28;20825;-69
2021/06/12 06:45:21;;;;;;;21.37;14.47;;;;;;;20.47;66.46;100486.56;5041630;28;20442;-70
2021/06/12 06:47:47;;;;;;;16.73;13.93;;;;;;;20.58;66.20;100487.88;5042272;28;21031;-68
2021/06/12 06:50:15;;;;;;;21.30;14.10;;;;;;;20.79;65.29;100482.34;5042086;28;20486;-69
2021/06/12 06:52:41;;;;;;;18.17;14.57;;;;;;;20.30;67.16;100480.59;5042072;28;20447;-69
2021/06/12 06:55:08;;;;;;;21.63;15.60;;;;;;;20.29;67.20;100482.50;5041125;28;20450;-70
2021/06/12 06:57:36;;;;;;;21.77;15.47;;;;;;;20.33;66.80;100485.66;5037054;28;20600;-69
2021/06/12 07:00:04;;;;;;;16.17;13.90;;;;;;;20.42;67.23;100476.28;5045315;28;20459;-69
2021/06/12 07:02:31;;;;;;;22.53;16.00;;;;;;;20.31;66.94;100474.97;5043315;28;20620;-70
2021/06/12 07:04:57;;;;;;;18.87;13.93;;;;;;;20.22;67.63;100486.19;5043430;28;20462;-69
2021/06/12 07:07:23;;;;;;;17.53;13.30;;;;;;;20.10;67.79;100485.88;5044121;28;21002;-70
2021/06/12 07:09:49;;;;;;;17.80;13.73;;;;;;;20.51;66.50;100479.69;5044649;28;20544;-70
2021/06/12 07:12:16;;;;;;;19.00;15.03;;;;;;;20.07;67.84;100478.16;5043841;28;20488;-70
2021/06/12 07:14:44;;;;;;;20.57;14.10;;;;;;;20.18;67.73;100487.63;5044028;28;20503;-71
2021/06/12 07:17:10;;;;;;;17.27;13.63;;;;;;;19.99;68.50;100486.44;5043153;28;20476;-71
2021/06/12 07:19:37;;;;;;;19.30;12.47;;;;;;;20.27;68.06;100479.09;5041811;28;20450;-70
2021/06/12 07:22:03;;;;;;;19.20;12.23;;;;;;;19.99;68.73;100481.84;5043516;28;20474;-70
2021/06/12 07:24:30;;;;;;;20.43;12.67;;;;;;;20.22;68.10;100478.88;5044499;28;20999;-71
2021/06/12 07:26:57;;;;;;;14.43;12.13;;;;;;;20.24;68.17;100482.25;5043608;28;20474;-69
2021/06/12 07:29:23;;;;;;;13.33;11.27;;;;;;;20.12;68.13;100481.94;5044830;28;20474;-68
2021/06/12 07:31:51;;;;;;;16.40;12.53;;;;;;;19.99;68.85;100483.72;5043809;28;20482;-70
2021/06/12 07:34:17;;;;;;;13.90;12.20;;;;;;;20.15;68.89;100486.13;5043653;28;20457;-70
2021/06/12 07:36:44;;;;;;;16.60;12.80;;;;;;;20.08;68.99;100480.66;5043360;28;20481;-70
2021/06/12 07:39:10;;;;;;;16.20;11.90;;;;;;;20.38;68.11;100472.31;5044221;28;20466;-69
2021/06/12 07:41:37;;;;;;;17.40;11.80;;;;;;;19.87;70.07;100476.09;5043849;28;20480;-69
2021/06/12 07:44:05;;;;;;;14.13;11.40;;;;;;;19.83;69.93;100477.53;5043620;28;20458;-69
2021/06/12 07:46:31;;;;;;;16.37;11.80;;;;;;;19.75;69.85;100478.53;5041367;28;20840;-69
2021/06/12 07:48:59;;;;;;;16.97;12.10;;;;;;;20.40;68.57;100474.81;5043253;28;20490;-68
2021/06/12 07:51:26;;;;;;;14.77;12.10;;;;;;;20.45;68.20;100477.75;5043608;28;20516;-69
2021/06/12 07:53:52;;;;;;;14.93;12.23;;;;;;;20.60;67.44;100483.91;5043442;28;21033;-69
2021/06/12 07:56:18;;;;;;;14.90;10.63;;;;;;;20.64;67.11;100487.09;5042082;28;20492;-69
2021/06/12 07:58:45;;;;;;;13.13;10.90;;;;;;;20.56;67.77;100487.25;5043940;28;20435;-69
2021/06/12 08:01:11;;;;;;;16.53;10.77;;;;;;;20.84;66.49;100492.63;5042741;28;20466;-69
2021/06/12 08:03:37;;;;;;;13.57;11.17;;;;;;;20.71;66.33;100493.41;5042748;28;20458;-70
2021/06/12 08:06:05;;;;;;;17.00;12.00;;;;;;;20.36;67.92;100478.97;5043299;28;20474;-72
2021/06/12 08:08:31;;;;;;;14.97;11.63;;;;;;;20.70;66.73;100491.72;5043571;28;20450;-70
2021/06/12 08:10:58;;;;;;;14.33;11.00;;;;;;;21.45;64.66;100489.06;5043609;28;20474;-69
2021/06/12 08:13:24;;;;;;;15.27;11.13;;;;;;;21.27;64.81;100496.97;5042855;28;20849;-69
2021/06/12 08:15:50;;;;;;;12.03;10.40;;;;;;;22.13;62.16;100504.41;5042055;28;20482;-69
2021/06/12 08:18:16;;;;;;;13.80;11.53;;;;;;;21.95;62.50;100502.31;5041933;28;20454;-69
2021/06/12 08:20:43;;;;;;;13.00;11.00;;;;;;;21.99;62.04;100498.13;5042417;28;20470;-68
2021/06/12 08:23:10;;;;;;;11.30;10.10;;;;;;;21.73;62.71;100507.13;5043002;28;20512;-68
2021/06/12 08:25:37;;;;;;;12.27;10.50;;;;;;;21.03;65.04;100512.78;5039662;28;20470;-68
2021/06/12 08:28:05;;;;;;;13.03;11.17;;;;;;;21.16;64.70;100509.25;5055143;28;20437;-69
2021/06/12 08:30:34;;;;;;;12.50;11.30;;;;;;;20.43;66.34;100509.72;5061275;28;20481;-68
2021/06/12 08:33:00;;;;;;;15.40;12.00;;;;;;;20.47;66.70;100511.00;5042238;28;20450;-68
2021/06/12 08:35:26;;;;;;;16.80;12.63;;;;;;;20.40;67.38;100513.69;5041509;28;20503;-68
2021/06/12 08:37:53;;;;;;;16.17;12.70;;;;;;;20.17;68.09;100519.34;5042932;28;20485;-68
2021/06/12 08:40:22;;;;;;;14.43;12.30;;;;;;;20.57;67.05;100511.50;5041711;28;20438;-68
2021/06/12 08:42:49;;;;;;;18.10;13.50;;;;;;;20.66;66.58;100514.91;5036091;28;20462;-69
2021/06/12 08:45:16;;;;;;;16.70;14.83;;;;;;;20.81;66.39;100512.88;5040823;28;20442;-68
2021/06/12 08:47:43;;;;;;;16.10;13.47;;;;;;;21.51;63.64;100510.03;5041968;28;20511;-68
2021/06/12 08:50:10;;;;;;;16.57;13.00;;;;;;;21.94;62.48;100517.84;5041025;28;20506;-69
2021/06/12 08:52:37;;;;;;;13.93;12.43;;;;;;;23.97;56.50;100513.13;5041682;28;20528;-68
2021/06/12 08:55:06;;;;;;;15.20;10.90;;;;;;;23.77;56.42;100516.00;5042014;28;20446;-68
2021/06/12 08:57:34;;;;;;;13.43;12.10;;;;;;;25.28;52.44;100513.03;5042017;28;20450;-68
2021/06/12 09:00:00;;;;;;;14.70;11.97;;;;;;;24.00;54.85;100523.59;5042067;28;20465;-69
2021/06/12 09:02:27;;;;;;;12.47;11.27;;;;;;;24.98;51.57;100512.97;5040873;28;20486;-69
2021/06/12 09:04:54;;;;;;;12.40;11.10;;;;;;;25.98;49.18;100510.75;5039774;28;20465;-70
2021/06/12 09:07:26;;;;;;;17.73;11.40;;;;;;;25.06;51.34;100529.06;5036186;28;20543;-68
2021/06/12 09:09:54;;;;;;;13.17;11.80;;;;;;;24.86;52.31;100523.84;5038687;28;20579;-68
2021/06/12 09:12:21;;;;;;;13.30;11.50;;;;;;;24.19;53.50;100520.94;5039717;28;20482;-68
2021/06/12 09:15:11;;;;;;;15.17;12.50;;;;;;;24.12;53.47;100531.09;5037241;28;20453;-68
2021/06/12 09:17:39;;;;;;;25.60;13.13;;;;;;;23.35;56.72;100522.97;5040748;28;20454;-69
2021/06/12 09:20:08;;;;;;;16.20;12.37;;;;;;;23.59;55.85;100519.47;5038164;28;20439;-68
2021/06/12 09:22:34;;;;;;;13.87;12.47;;;;;;;23.28;55.92;100518.41;5039919;28;20717;-68
2021/06/12 09:25:01;;;;;;;16.23;12.93;;;;;;;23.26;56.71;100523.25;5038811;28;20986;-68
2021/06/12 09:27:27;;;;;;;15.37;12.57;;;;;;;23.34;55.49;100524.88;5027457;28;20482;-68
2021/06/12 09:29:53;;;;;;;13.63;12.23;;;;;;;23.47;55.33;100519.34;5020868;28;20471;-69
2021/06/12 09:32:23;;;;;;;13.83;12.43;;;;;;;23.13;56.40;100526.03;5019846;28;20661;-68
2021/06/12 09:34:51;;;;;;;13.70;12.30;;;;;;;23.21;56.57;100516.75;5021096;28;20466;-69
2021/06/12 09:37:20;;;;;;;15.20;13.07;;;;;;;22.52;58.14;100514.44;5020548;28;20482;-69
2021/06/12 09:39:57;;;;;;;14.40;12.90;;;;;;;23.07;56.98;100522.28;5020288;28;20486;-68
2021/06/12 09:42:35;;;;;;;15.13;13.50;;;;;;;23.72;55.14;100521.28;5020508;28;20483;-69
2021/06/12 09:45:04;;;;;;;15.70;13.13;;;;;;;23.68;54.18;100522.78;5019746;28;20474;-69
2021/06/12 09:47:32;;;;;;;13.73;10.90;;;;;;;24.87;51.67;100516.47;5020277;28;20474;-69
2021/06/12 09:50:00;;;;;;;14.57;12.40;;;;;;;24.89;50.34;100517.06;5020490;28;20486;-69
2021/06/12 09:52:27;;;;;;;13.80;11.90;;;;;;;26.06;47.42;100513.16;5019598;28;20987;-69
2021/06/12 09:54:53;;;;;;;12.20;10.70;;;;;;;25.80;47.91;100523.44;5020616;28;20455;-69
2021/06/12 09:57:21;;;;;;;13.20;11.80;;;;;;;25.74;48.03;100524.34;5020483;28;20486;-69
2021/06/12 09:59:51;;;;;;;12.43;11.13;;;;;;;25.83;48.02;100522.97;5020092;28;20463;-69
2021/06/12 10:02:37;;;;;;;12.37;10.10;;;;;;;26.15;46.59;100521.84;5020628;28;20557;-69
2021/06/12 10:05:05;;;;;;;12.77;10.70;;;;;;;25.35;48.83;100515.69;5020703;28;20938;-68
2021/06/12 10:07:31;;;;;;;11.57;9.27;;;;;;;25.68;46.43;100517.94;5019315;28;20475;-69
2021/06/12 10:10:01;;;;;;;10.03;8.73;;;;;;;25.89;45.75;100529.41;5020977;28;20840;-69
2021/06/12 10:12:28;;;;;;;10.60;9.10;;;;;;;25.42;45.24;100515.59;5020349;28;20490;-69
2021/06/12 10:14:55;;;;;;;10.30;7.80;;;;;;;26.47;42.14;100519.56;5019648;28;20864;-69
2021/06/12 10:17:22;;;;;;;7.50;6.70;;;;;;;26.77;41.74;100515.84;5020224;28;20688;-68
2021/06/12 10:19:51;;;;;;;7.53;6.70;;;;;;;27.78;39.55;100515.38;5028209;28;20595;-69
2021/06/12 10:22:18;;;;;;;10.53;7.07;;;;;;;27.95;38.61;100516.25;5042930;28;20470;-69
2021/06/12 10:24:44;;;;;;;6.83;6.20;;;;;;;26.66;40.56;100518.41;5037696;28;20466;-69
2021/06/12 10:27:10;;;;;;;8.43;6.10;;;;;;;25.35;43.01;100505.56;5044468;28;20461;-69
2021/06/12 10:29:37;;;;;;;6.43;5.83;;;;;;;24.41;45.23;100522.19;5044535;28;20477;-68
2021/06/12 10:32:04;;;;;;;6.97;5.83;;;;;;;24.32;44.92;100517.22;5043316;28;20838;-69
2021/06/12 10:34:31;;;;;;;9.20;6.50;;;;;;;25.03;43.60;100515.84;5044384;28;20462;-68
2021/06/12 10:37:00;;;;;;;9.10;6.67;;;;;;;27.13;39.73;100511.13;5044225;28;20535;-69
2021/06/12 10:39:28;;;;;;;7.80;5.50;;;;;;;28.51;38.16;100518.19;5043814;28;20434;-70
2021/06/12 10:42:10;;;;;;;6.87;5.10;;;;;;;27.52;38.05;100514.09;5043705;28;20762;-69
2021/06/12 10:44:37;;;;;;;6.33;4.90;;;;;;;26.82;38.81;100525.06;5043946;28;20461;-69
2021/06/12 10:47:03;;;;;;;8.30;4.83;;;;;;;25.43;41.25;100507.13;5042407;28;20470;-69
2021/06/12 10:49:31;;;;;;;5.00;4.50;;;;;;;24.58;42.65;100518.88;5043961;28;20546;-69
2021/06/12 10:51:59;;;;;;;5.40;4.37;;;;;;;24.22;43.91;100523.22;5043616;28;20477;-68
2021/06/12 10:54:26;;;;;;;9.90;5.10;;;;;;;23.74;45.46;100530.06;5042939;28;20522;-69
2021/06/12 10:56:55;;;;;;;7.63;5.00;;;;;;;24.49;43.61;100545.66;5043480;28;20473;-68
2021/06/12 10:59:42;;;;;;;5.13;4.17;;;;;;;24.60;43.10;100535.94;5044317;28;20484;-69
2021/06/12 11:02:12;;;;;;;7.93;4.10;;;;;;;24.57;43.03;100537.19;5043005;28;20505;-68
2021/06/12 11:04:52;;;;;;;6.27;3.87;;;;;;;24.75;41.55;100532.81;5041641;28;20486;-69
2021/06/12 11:07:35;;;;;;;5.17;4.00;;;;;;;26.25;38.36;100531.16;5042552;28;20481;-69
2021/06/12 11:10:24;;;;;;;5.00;4.17;;;;;;;27.04;36.43;100530.69;5042121;28;20486;-68
2021/06/12 11:12:52;;;;;;;4.63;3.43;;;;;;;26.93;36.64;100528.03;5052159;28;20505;-66
2021/06/12 11:15:34;;;;;;;6.80;4.10;;;;;;;27.47;36.33;100514.81;5035376;28;20506;-66